sensor_id;sensor_type;location;lat;lon;timestamp;pressure;altitude;pressure_sealevel;temperature;humidity
61710;BME280;73500;51.494;5.386;2023-11-22T00:00:09;102638.31;;;19.17;44.08
61710;BME280;73500;51.494;5.386;2023-11-22T00:02:38;102633.94;;;19.16;44.16
61710;BME280;73500;51.494;5.386;2023-11-22T00:05:04;102626.97;;;19.15;44.21
61710;BME280;73500;51.494;5.386;2023-11-22T00:07:33;102621.78;;;19.14;44.11
61710;BME280;73500;51.494;5.386;2023-11-22T00:09:59;102620.06;;;19.13;43.95
61710;BME280;73500;51.494;5.386;2023-11-22T00:12:26;102619.22;;;19.12;44.06
61710;BME280;73500;51.494;5.386;2023-11-22T00:14:52;102619.31;;;19.11;44.21
61710;BME280;73500;51.494;5.386;2023-11-22T00:17:18;102609.66;;;19.10;43.90
61710;BME280;73500;51.494;5.386;2023-11-22T00:19:44;102613.25;;;19.09;43.94
61710;BME280;73500;51.494;5.386;2023-11-22T00:22:10;102612.41;;;19.08;43.91
61710;BME280;73500;51.494;5.386;2023-11-22T00:24:42;102616.94;;;19.06;43.88
61710;BME280;73500;51.494;5.386;2023-11-22T00:27:10;102621.34;;;19.06;43.78
61710;BME280;73500;51.494;5.386;2023-11-22T00:29:36;102629.34;;;19.04;43.93
61710;BME280;73500;51.494;5.386;2023-11-22T00:32:01;102634.63;;;19.04;43.75
61710;BME280;73500;51.494;5.386;2023-11-22T00:34:26;102631.16;;;19.03;43.75
61710;BME280;73500;51.494;5.386;2023-11-22T00:36:52;102632.97;;;19.03;43.58
61710;BME280;73500;51.494;5.386;2023-11-22T00:39:18;102639.16;;;19.02;43.61
61710;BME280;73500;51.494;5.386;2023-11-22T00:41:43;102638.41;;;19.00;43.82
61710;BME280;73500;51.494;5.386;2023-11-22T00:44:12;102645.50;;;18.99;43.59
61710;BME280;73500;51.494;5.386;2023-11-22T00:46:37;102649.06;;;18.98;43.82
61710;BME280;73500;51.494;5.386;2023-11-22T00:49:03;102650.00;;;18.97;43.57
61710;BME280;73500;51.494;5.386;2023-11-22T00:51:33;102643.88;;;18.97;43.46
61710;BME280;73500;51.494;5.386;2023-11-22T00:53:59;102648.31;;;18.96;43.61
61710;BME280;73500;51.494;5.386;2023-11-22T00:56:24;102658.97;;;18.95;43.30
61710;BME280;73500;51.494;5.386;2023-11-22T00:58:50;102657.25;;;18.94;43.44
61710;BME280;73500;51.494;5.386;2023-11-22T01:01:21;102647.69;;;18.91;43.56
61710;BME280;73500;51.494;5.386;2023-11-22T01:03:47;102650.25;;;18.93;43.51
61710;BME280;73500;51.494;5.386;2023-11-22T01:06:12;102660.97;;;18.90;43.60
61710;BME280;73500;51.494;5.386;2023-11-22T01:08:38;102666.28;;;18.90;43.44
61710;BME280;73500;51.494;5.386;2023-11-22T01:11:03;102670.72;;;18.89;43.16
61710;BME280;73500;51.494;5.386;2023-11-22T01:13:29;102669.00;;;18.88;43.47
61710;BME280;73500;51.494;5.386;2023-11-22T01:15:55;102676.06;;;18.88;43.57
61710;BME280;73500;51.494;5.386;2023-11-22T01:18:20;102677.97;;;18.85;43.36
61710;BME280;73500;51.494;5.386;2023-11-22T01:20:45;102677.97;;;18.85;43.08
61710;BME280;73500;51.494;5.386;2023-11-22T01:23:10;102677.19;;;18.83;43.16
61710;BME280;73500;51.494;5.386;2023-11-22T01:25:36;102678.03;;;18.84;43.29
61710;BME280;73500;51.494;5.386;2023-11-22T01:28:01;102678.94;;;18.83;43.18
61710;BME280;73500;51.494;5.386;2023-11-22T01:30:26;102681.66;;;18.81;43.35
61710;BME280;73500;51.494;5.386;2023-11-22T01:32:53;102687.91;;;18.80;43.11
61710;BME280;73500;51.494;5.386;2023-11-22T01:35:20;102697.59;;;18.80;43.29
61710;BME280;73500;51.494;5.386;2023-11-22T01:37:45;102712.53;;;18.81;43.01
61710;BME280;73500;51.494;5.386;2023-11-22T01:40:11;102714.41;;;18.79;42.93
61710;BME280;73500;51.494;5.386;2023-11-22T01:42:36;102717.97;;;18.78;43.22
61710;BME280;73500;51.494;5.386;2023-11-22T01:45:08;102725.91;;;18.78;43.03
61710;BME280;73500;51.494;5.386;2023-11-22T01:47:35;102733.06;;;18.76;43.04
61710;BME280;73500;51.494;5.386;2023-11-22T01:50:00;102742.66;;;18.77;42.93
61710;BME280;73500;51.494;5.386;2023-11-22T01:52:26;102739.19;;;18.76;43.09
61710;BME280;73500;51.494;5.386;2023-11-22T01:54:51;102742.75;;;18.75;42.75
61710;BME280;73500;51.494;5.386;2023-11-22T01:57:16;102741.06;;;18.74;42.81
61710;BME280;73500;51.494;5.386;2023-11-22T01:59:43;102738.50;;;18.73;42.71
61710;BME280;73500;51.494;5.386;2023-11-22T02:02:10;102738.50;;;18.73;42.82
61710;BME280;73500;51.494;5.386;2023-11-22T02:04:35;102739.44;;;18.72;42.85
61710;BME280;73500;51.494;5.386;2023-11-22T02:07:00;102735.94;;;18.71;42.85
61710;BME280;73500;51.494;5.386;2023-11-22T02:09:26;102733.31;;;18.71;42.58
61710;BME280;73500;51.494;5.386;2023-11-22T02:11:51;102729.78;;;18.71;42.77
61710;BME280;73500;51.494;5.386;2023-11-22T02:14:17;102722.81;;;18.70;42.96
61710;BME280;73500;51.494;5.386;2023-11-22T02:16:42;102719.31;;;18.69;42.98
61710;BME280;73500;51.494;5.386;2023-11-22T02:19:14;102714.13;;;18.67;42.95
61710;BME280;73500;51.494;5.386;2023-11-22T02:21:40;102714.03;;;18.69;42.69
61710;BME280;73500;51.494;5.386;2023-11-22T02:24:05;102706.97;;;18.70;42.66
61710;BME280;73500;51.494;5.386;2023-11-22T02:26:32;102713.09;;;18.70;42.73
61710;BME280;73500;51.494;5.386;2023-11-22T02:28:58;102721.09;;;18.68;42.74
61710;BME280;73500;51.494;5.386;2023-11-22T02:31:24;102732.63;;;18.67;42.80
61710;BME280;73500;51.494;5.386;2023-11-22T02:33:49;102736.13;;;18.68;42.49
61710;BME280;73500;51.494;5.386;2023-11-22T02:36:15;102736.28;;;18.65;42.89
61710;BME280;73500;51.494;5.386;2023-11-22T02:38:40;102736.28;;;18.65;42.85
61710;BME280;73500;51.494;5.386;2023-11-22T02:41:07;102747.75;;;18.64;42.68
61710;BME280;73500;51.494;5.386;2023-11-22T02:43:34;102738.91;;;18.65;42.45
61710;BME280;73500;51.494;5.386;2023-11-22T02:45:59;102740.78;;;18.63;42.12
61710;BME280;73500;51.494;5.386;2023-11-22T02:48:24;102741.72;;;18.62;42.45
61710;BME280;73500;51.494;5.386;2023-11-22T02:50:49;102734.63;;;18.62;42.46
61710;BME280;73500;51.494;5.386;2023-11-22T02:53:15;102738.16;;;18.63;42.52
61710;BME280;73500;51.494;5.386;2023-11-22T02:55:40;102732.94;;;18.61;42.58
61710;BME280;73500;51.494;5.386;2023-11-22T02:58:06;102729.53;;;18.59;42.38
61710;BME280;73500;51.494;5.386;2023-11-22T03:00:31;102730.41;;;18.60;42.26
61710;BME280;73500;51.494;5.386;2023-11-22T03:02:59;102734.81;;;18.59;42.34
61710;BME280;73500;51.494;5.386;2023-11-22T03:05:25;102727.84;;;18.58;42.24
61710;BME280;73500;51.494;5.386;2023-11-22T03:07:50;102726.97;;;18.58;41.99
61710;BME280;73500;51.494;5.386;2023-11-22T03:10:16;102731.41;;;18.57;42.01
61710;BME280;73500;51.494;5.386;2023-11-22T03:12:43;102726.97;;;18.58;42.05
61710;BME280;73500;51.494;5.386;2023-11-22T03:15:09;102737.59;;;18.56;42.07
61710;BME280;73500;51.494;5.386;2023-11-22T03:17:34;102739.41;;;18.56;42.04
61710;BME280;73500;51.494;5.386;2023-11-22T03:19:59;102743.84;;;18.55;41.94
61710;BME280;73500;51.494;5.386;2023-11-22T03:22:26;102738.63;;;18.54;41.81
61710;BME280;73500;51.494;5.386;2023-11-22T03:24:52;102728.16;;;18.52;41.79
61710;BME280;73500;51.494;5.386;2023-11-22T03:27:18;102725.53;;;18.52;41.86
61710;BME280;73500;51.494;5.386;2023-11-22T03:29:46;102740.47;;;18.52;41.84
61710;BME280;73500;51.494;5.386;2023-11-22T03:32:11;102746.63;;;18.52;41.89
61710;BME280;73500;51.494;5.386;2023-11-22T03:34:36;102744.91;;;18.51;41.49
61710;BME280;73500;51.494;5.386;2023-11-22T03:37:02;102749.34;;;18.51;41.62
61710;BME280;73500;51.494;5.386;2023-11-22T03:39:27;102752.00;;;18.51;41.67
61710;BME280;73500;51.494;5.386;2023-11-22T03:41:52;102747.63;;;18.49;41.40
61710;BME280;73500;51.494;5.386;2023-11-22T03:44:17;102758.28;;;18.48;41.32
61710;BME280;73500;51.494;5.386;2023-11-22T03:46:43;102769.81;;;18.47;41.39
61710;BME280;73500;51.494;5.386;2023-11-22T03:49:09;102772.34;;;18.48;41.34
61710;BME280;73500;51.494;5.386;2023-11-22T03:51:35;102780.38;;;18.47;41.48
61710;BME280;73500;51.494;5.386;2023-11-22T03:54:01;102795.31;;;18.46;41.60
61710;BME280;73500;51.494;5.386;2023-11-22T03:56:30;102804.19;;;18.45;41.28
61710;BME280;73500;51.494;5.386;2023-11-22T03:58:55;102801.63;;;18.44;41.08
61710;BME280;73500;51.494;5.386;2023-11-22T04:01:21;102813.88;;;18.45;41.35
61710;BME280;73500;51.494;5.386;2023-11-22T04:03:47;102813.13;;;18.43;41.26
61710;BME280;73500;51.494;5.386;2023-11-22T04:06:17;102815.75;;;18.43;41.27
61710;BME280;73500;51.494;5.386;2023-11-22T04:08:43;102817.56;;;18.42;41.27
61710;BME280;73500;51.494;5.386;2023-11-22T04:11:12;102823.75;;;18.41;40.95
61710;BME280;73500;51.494;5.386;2023-11-22T04:13:38;102823.75;;;18.41;41.21
61710;BME280;73500;51.494;5.386;2023-11-22T04:16:04;102829.03;;;18.41;40.96
61710;BME280;73500;51.494;5.386;2023-11-22T04:18:29;102827.31;;;18.40;40.88
61710;BME280;73500;51.494;5.386;2023-11-22T04:20:55;102833.56;;;18.39;41.05
61710;BME280;73500;51.494;5.386;2023-11-22T04:23:23;102844.94;;;18.40;40.87
61710;BME280;73500;51.494;5.386;2023-11-22T04:25:48;102842.38;;;18.38;41.14
61710;BME280;73500;51.494;5.386;2023-11-22T04:28:14;102844.19;;;18.38;40.95
61710;BME280;73500;51.494;5.386;2023-11-22T04:30:40;102851.22;;;18.37;40.92
61710;BME280;73500;51.494;5.386;2023-11-22T04:33:05;102853.88;;;18.37;41.01
61710;BME280;73500;51.494;5.386;2023-11-22T04:35:31;102853.88;;;18.37;41.02
61710;BME280;73500;51.494;5.386;2023-11-22T04:38:01;102845.19;;;18.35;40.63
61710;BME280;73500;51.494;5.386;2023-11-22T04:40:26;102847.91;;;18.34;40.58
61710;BME280;73500;51.494;5.386;2023-11-22T04:42:51;102846.13;;;18.34;40.68
61710;BME280;73500;51.494;5.386;2023-11-22T04:45:16;102845.25;;;18.34;40.64
61710;BME280;73500;51.494;5.386;2023-11-22T04:47:42;102846.22;;;18.33;40.65
61710;BME280;73500;51.494;5.386;2023-11-22T04:50:08;102846.22;;;18.33;40.46
61710;BME280;73500;51.494;5.386;2023-11-22T04:52:34;102844.50;;;18.31;40.69
61710;BME280;73500;51.494;5.386;2023-11-22T04:54:59;102850.69;;;18.30;40.67
61710;BME280;73500;51.494;5.386;2023-11-22T04:57:26;102852.50;;;18.30;40.73
61710;BME280;73500;51.494;5.386;2023-11-22T04:59:51;102850.78;;;18.29;40.39
61710;BME280;73500;51.494;5.386;2023-11-22T05:02:17;102861.31;;;18.29;40.32
61710;BME280;73500;51.494;5.386;2023-11-22T05:04:42;102854.38;;;18.28;40.29
61710;BME280;73500;51.494;5.386;2023-11-22T05:07:09;102859.63;;;18.28;40.44
61710;BME280;73500;51.494;5.386;2023-11-22T05:09:34;102857.91;;;18.27;40.17
61710;BME280;73500;51.494;5.386;2023-11-22T05:11:59;102855.28;;;18.27;40.35
61710;BME280;73500;51.494;5.386;2023-11-22T05:14:24;102857.06;;;18.26;40.24
61710;BME280;73500;51.494;5.386;2023-11-22T05:16:50;102868.56;;;18.25;40.34
61710;BME280;73500;51.494;5.386;2023-11-22T05:19:15;102865.06;;;18.25;40.38
61710;BME280;73500;51.494;5.386;2023-11-22T05:21:41;102853.63;;;18.24;40.29
61710;BME280;73500;51.494;5.386;2023-11-22T05:24:07;102862.50;;;18.23;40.30
61710;BME280;73500;51.494;5.386;2023-11-22T05:26:32;102866.91;;;18.23;40.31
61710;BME280;73500;51.494;5.386;2023-11-22T05:28:58;102868.63;;;18.24;40.21
61710;BME280;73500;51.494;5.386;2023-11-22T05:31:23;102861.63;;;18.23;39.99
61710;BME280;73500;51.494;5.386;2023-11-22T05:33:48;102859.00;;;18.23;40.12
61710;BME280;73500;51.494;5.386;2023-11-22T05:36:14;102855.50;;;18.22;40.16
61710;BME280;73500;51.494;5.386;2023-11-22T05:38:41;102854.66;;;18.22;39.97
61710;BME280;73500;51.494;5.386;2023-11-22T05:41:07;102852.94;;;18.21;40.14
61710;BME280;73500;51.494;5.386;2023-11-22T05:43:33;102849.47;;;18.20;40.15
61710;BME280;73500;51.494;5.386;2023-11-22T05:46:01;102850.38;;;18.19;39.95
61710;BME280;73500;51.494;5.386;2023-11-22T05:48:27;102854.81;;;18.19;39.88
61710;BME280;73500;51.494;5.386;2023-11-22T05:50:52;102860.94;;;18.19;40.33
61710;BME280;73500;51.494;5.386;2023-11-22T05:53:17;102877.47;;;18.23;40.40
61710;BME280;73500;51.494;5.386;2023-11-22T05:55:48;102869.56;;;18.23;40.70
61710;BME280;73500;51.494;5.386;2023-11-22T05:58:14;102889.59;;;18.27;40.86
61710;BME280;73500;51.494;5.386;2023-11-22T06:00:43;102900.84;;;18.30;41.20
61710;BME280;73500;51.494;5.386;2023-11-22T06:03:08;102899.94;;;18.31;41.87
61710;BME280;73500;51.494;5.386;2023-11-22T06:05:34;102902.41;;;18.35;41.88
61710;BME280;73500;51.494;5.386;2023-11-22T06:07:59;102889.00;;;18.39;41.92
61710;BME280;73500;51.494;5.386;2023-11-22T06:10:24;102884.47;;;18.41;42.04
61710;BME280;73500;51.494;5.386;2023-11-22T06:12:50;102885.16;;;18.45;41.80
61710;BME280;73500;51.494;5.386;2023-11-22T06:15:15;102892.84;;;18.49;41.74
61710;BME280;73500;51.494;5.386;2023-11-22T06:17:40;102898.84;;;18.53;41.84
61710;BME280;73500;51.494;5.386;2023-11-22T06:20:06;102897.00;;;18.55;41.84
61710;BME280;73500;51.494;5.386;2023-11-22T06:22:32;102897.00;;;18.55;42.02
61710;BME280;73500;51.494;5.386;2023-11-22T06:24:57;102896.84;;;18.58;42.04
61710;BME280;73500;51.494;5.386;2023-11-22T06:27:22;102902.03;;;18.60;41.88
61710;BME280;73500;51.494;5.386;2023-11-22T06:29:48;102909.97;;;18.60;42.02
61710;BME280;73500;51.494;5.386;2023-11-22T06:32:13;102908.09;;;18.62;42.04
61710;BME280;73500;51.494;5.386;2023-11-22T06:34:39;102904.53;;;18.63;41.73
61710;BME280;73500;51.494;5.386;2023-11-22T06:37:04;102920.13;;;18.67;41.64
61710;BME280;73500;51.494;5.386;2023-11-22T06:39:31;102919.97;;;18.71;41.70
61710;BME280;73500;51.494;5.386;2023-11-22T06:41:57;102925.97;;;18.74;41.71
61710;BME280;73500;51.494;5.386;2023-11-22T06:44:23;102925.97;;;18.74;41.61
61710;BME280;73500;51.494;5.386;2023-11-22T06:46:48;102939.09;;;18.76;41.60
61710;BME280;73500;51.494;5.386;2023-11-22T06:49:13;102935.56;;;18.75;41.98
61710;BME280;73500;51.494;5.386;2023-11-22T06:51:39;102939.09;;;18.76;41.73
61710;BME280;73500;51.494;5.386;2023-11-22T06:54:05;102941.66;;;18.77;41.89
61710;BME280;73500;51.494;5.386;2023-11-22T06:56:31;102932.63;;;18.81;41.59
61710;BME280;73500;51.494;5.386;2023-11-22T06:58:58;102915.94;;;18.81;41.40
61710;BME280;73500;51.494;5.386;2023-11-22T07:01:23;102904.50;;;18.80;41.50
61710;BME280;73500;51.494;5.386;2023-11-22T07:03:51;102901.72;;;18.83;41.48
61710;BME280;73500;51.494;5.386;2023-11-22T07:06:18;102905.00;;;18.89;41.58
61710;BME280;73500;51.494;5.386;2023-11-22T07:08:46;102899.78;;;18.87;41.87
61710;BME280;73500;51.494;5.386;2023-11-22T07:11:12;102893.47;;;18.90;41.59
61710;BME280;73500;51.494;5.386;2023-11-22T07:13:37;102897.91;;;18.89;42.01
61710;BME280;73500;51.494;5.386;2023-11-22T07:16:05;102896.91;;;18.92;41.78
61710;BME280;73500;51.494;5.386;2023-11-22T07:18:32;102894.19;;;18.93;41.95
61710;BME280;73500;51.494;5.386;2023-11-22T07:20:57;102891.47;;;18.95;41.84
61710;BME280;73500;51.494;5.386;2023-11-22T07:23:24;102901.88;;;18.98;42.21
61710;BME280;73500;51.494;5.386;2023-11-22T07:25:54;102899.16;;;18.99;42.29
61710;BME280;73500;51.494;5.386;2023-11-22T07:28:19;102908.94;;;18.97;42.03
61710;BME280;73500;51.494;5.386;2023-11-22T07:30:44;102909.81;;;18.98;42.30
61710;BME280;73500;51.494;5.386;2023-11-22T07:33:10;102913.13;;;19.01;42.23
61710;BME280;73500;51.494;5.386;2023-11-22T07:35:36;102923.88;;;18.98;42.25
61710;BME280;73500;51.494;5.386;2023-11-22T07:38:01;102920.28;;;18.99;42.31
61710;BME280;73500;51.494;5.386;2023-11-22T07:40:28;102926.44;;;19.00;42.14
61710;BME280;73500;51.494;5.386;2023-11-22T07:42:54;102925.66;;;18.98;41.81
61710;BME280;73500;51.494;5.386;2023-11-22T07:45:19;102925.59;;;18.99;41.73
61710;BME280;73500;51.494;5.386;2023-11-22T07:47:45;102923.94;;;18.97;41.79
61710;BME280;73500;51.494;5.386;2023-11-22T07:50:12;102928.47;;;18.95;41.95
61710;BME280;73500;51.494;5.386;2023-11-22T07:52:37;102923.25;;;18.93;41.62
61710;BME280;73500;51.494;5.386;2023-11-22T07:55:05;102914.47;;;18.93;41.48
61710;BME280;73500;51.494;5.386;2023-11-22T07:57:34;102928.53;;;18.93;41.90
61710;BME280;73500;51.494;5.386;2023-11-22T07:59:59;102936.47;;;18.93;41.85
61710;BME280;73500;51.494;5.386;2023-11-22T08:02:26;102935.59;;;18.93;41.96
61710;BME280;73500;51.494;5.386;2023-11-22T08:04:51;102935.59;;;18.93;42.17
61710;BME280;73500;51.494;5.386;2023-11-22T08:07:17;102952.25;;;18.95;41.93
61710;BME280;73500;51.494;5.386;2023-11-22T08:09:43;102964.50;;;18.96;42.25
61710;BME280;73500;51.494;5.386;2023-11-22T08:12:08;102966.28;;;18.95;41.87
61710;BME280;73500;51.494;5.386;2023-11-22T08:14:39;102973.38;;;18.95;42.14
61710;BME280;73500;51.494;5.386;2023-11-22T08:17:05;102980.34;;;18.96;42.09
61710;BME280;73500;51.494;5.386;2023-11-22T08:19:31;102984.63;;;18.98;42.19
61710;BME280;73500;51.494;5.386;2023-11-22T08:21:56;102979.34;;;18.98;42.05
61710;BME280;73500;51.494;5.386;2023-11-22T08:24:22;102980.28;;;18.97;42.15
61710;BME280;73500;51.494;5.386;2023-11-22T08:26:47;102977.56;;;18.99;41.95
61710;BME280;73500;51.494;5.386;2023-11-22T08:29:12;102975.88;;;18.98;42.05
61710;BME280;73500;51.494;5.386;2023-11-22T08:31:39;102976.72;;;18.98;41.85
61710;BME280;73500;51.494;5.386;2023-11-22T08:34:04;102976.72;;;18.98;41.75
61710;BME280;73500;51.494;5.386;2023-11-22T08:36:32;102969.63;;;18.99;41.80
61710;BME280;73500;51.494;5.386;2023-11-22T08:38:59;102968.78;;;18.98;41.87
61710;BME280;73500;51.494;5.386;2023-11-22T08:41:25;102965.28;;;18.98;41.87
61710;BME280;73500;51.494;5.386;2023-11-22T08:43:52;102965.28;;;18.98;41.91
61710;BME280;73500;51.494;5.386;2023-11-22T08:46:17;102972.34;;;18.97;42.10
61710;BME280;73500;51.494;5.386;2023-11-22T08:48:43;102989.94;;;18.98;41.89
61710;BME280;73500;51.494;5.386;2023-11-22T08:51:08;102997.84;;;18.98;41.67
61710;BME280;73500;51.494;5.386;2023-11-22T08:53:35;102999.66;;;18.98;41.61
61710;BME280;73500;51.494;5.386;2023-11-22T08:56:00;102998.78;;;18.97;41.65
61710;BME280;73500;51.494;5.386;2023-11-22T08:58:25;102998.69;;;18.99;41.98
61710;BME280;73500;51.494;5.386;2023-11-22T09:00:52;102997.00;;;18.98;41.98
61710;BME280;73500;51.494;5.386;2023-11-22T09:03:18;103000.56;;;18.97;41.50
61710;BME280;73500;51.494;5.386;2023-11-22T09:05:44;103001.41;;;18.97;41.51
61710;BME280;73500;51.494;5.386;2023-11-22T09:08:11;103002.13;;;19.01;42.06
61710;BME280;73500;51.494;5.386;2023-11-22T09:10:38;103002.03;;;19.02;41.69
61710;BME280;73500;51.494;5.386;2023-11-22T09:13:04;103003.97;;;18.99;41.66
61710;BME280;73500;51.494;5.386;2023-11-22T09:15:30;102996.94;;;18.99;41.78
61710;BME280;73500;51.494;5.386;2023-11-22T09:17:57;103003.97;;;18.99;41.68
61710;BME280;73500;51.494;5.386;2023-11-22T09:20:23;103006.69;;;18.97;41.79
61710;BME280;73500;51.494;5.386;2023-11-22T09:22:51;103006.09;;;18.92;41.89
61710;BME280;73500;51.494;5.386;2023-11-22T09:25:17;103006.47;;;18.84;41.94
61710;BME280;73500;51.494;5.386;2023-11-22T09:27:44;103018.59;;;18.89;42.15
61710;BME280;73500;51.494;5.386;2023-11-22T09:30:14;103019.38;;;18.91;42.07
61710;BME280;73500;51.494;5.386;2023-11-22T09:32:46;103005.31;;;18.90;42.00
61710;BME280;73500;51.494;5.386;2023-11-22T09:35:13;103014.09;;;18.91;41.95
61710;BME280;73500;51.494;5.386;2023-11-22T09:37:39;103016.56;;;18.94;42.23
61710;BME280;73500;51.494;5.386;2023-11-22T09:40:08;103010.06;;;19.01;41.90
61710;BME280;73500;51.494;5.386;2023-11-22T09:42:34;103010.84;;;19.03;41.71
61710;BME280;73500;51.494;5.386;2023-11-22T09:45:00;103015.09;;;19.06;41.58
61710;BME280;73500;51.494;5.386;2023-11-22T09:47:27;103021.16;;;19.08;41.83
61710;BME280;73500;51.494;5.386;2023-11-22T09:49:54;103023.88;;;19.06;41.73
61710;BME280;73500;51.494;5.386;2023-11-22T09:52:22;103031.75;;;19.08;41.49
61710;BME280;73500;51.494;5.386;2023-11-22T09:54:53;103030.78;;;19.09;41.68
61710;BME280;73500;51.494;5.386;2023-11-22T09:57:22;103022.84;;;19.09;41.71
61710;BME280;73500;51.494;5.386;2023-11-22T09:59:52;103017.03;;;19.02;41.93
61710;BME280;73500;51.494;5.386;2023-11-22T10:02:19;103019.69;;;19.02;41.99
61710;BME280;73500;51.494;5.386;2023-11-22T10:04:46;103010.16;;;18.99;41.86
61710;BME280;73500;51.494;5.386;2023-11-22T10:07:12;103006.63;;;18.99;42.05
61710;BME280;73500;51.494;5.386;2023-11-22T10:09:39;103005.69;;;19.00;42.17
61710;BME280;73500;51.494;5.386;2023-11-22T10:12:06;103003.97;;;18.99;42.17
61710;BME280;73500;51.494;5.386;2023-11-22T10:14:32;103007.41;;;19.01;42.07
61710;BME280;73500;51.494;5.386;2023-11-22T10:17:00;103006.47;;;19.02;42.18
61710;BME280;73500;51.494;5.386;2023-11-22T10:19:27;103004.59;;;19.04;42.05
61710;BME280;73500;51.494;5.386;2023-11-22T10:22:07;103005.38;;;19.06;42.27
61710;BME280;73500;51.494;5.386;2023-11-22T10:24:33;103009.72;;;19.07;42.13
61710;BME280;73500;51.494;5.386;2023-11-22T10:26:59;103005.25;;;19.09;41.92
61710;BME280;73500;51.494;5.386;2023-11-22T10:29:25;103014.78;;;19.12;41.97
61710;BME280;73500;51.494;5.386;2023-11-22T10:31:51;103011.28;;;19.11;41.88
61710;BME280;73500;51.494;5.386;2023-11-22T10:34:24;103015.81;;;19.09;41.83
61710;BME280;73500;51.494;5.386;2023-11-22T10:36:49;103007.81;;;19.11;41.65
61710;BME280;73500;51.494;5.386;2023-11-22T10:39:21;103000.78;;;19.10;41.81
61710;BME280;73500;51.494;5.386;2023-11-22T10:41:47;103009.56;;;19.10;41.74
61710;BME280;73500;51.494;5.386;2023-11-22T10:44:15;102996.50;;;19.07;41.46
61710;BME280;73500;51.494;5.386;2023-11-22T10:46:41;102996.59;;;19.06;41.94
61710;BME280;73500;51.494;5.386;2023-11-22T10:49:06;102986.00;;;19.06;42.12
61710;BME280;73500;51.494;5.386;2023-11-22T10:51:33;102992.19;;;19.06;42.04
61710;BME280;73500;51.494;5.386;2023-11-22T10:54:00;102992.19;;;19.06;41.67
61710;BME280;73500;51.494;5.386;2023-11-22T10:56:38;102977.25;;;19.05;41.55
61710;BME280;73500;51.494;5.386;2023-11-22T10:59:08;102964.94;;;19.04;42.02
61710;BME280;73500;51.494;5.386;2023-11-22T11:01:35;102962.31;;;19.04;42.12
61710;BME280;73500;51.494;5.386;2023-11-22T11:04:02;102964.03;;;19.05;42.04
61710;BME280;73500;51.494;5.386;2023-11-22T11:06:32;102964.03;;;19.05;42.30
61710;BME280;73500;51.494;5.386;2023-11-22T11:09:08;102950.81;;;19.05;42.36
61710;BME280;73500;51.494;5.386;2023-11-22T11:11:35;102948.09;;;19.07;42.43
61710;BME280;73500;51.494;5.386;2023-11-22T11:14:02;102941.00;;;19.07;42.48
61710;BME280;73500;51.494;5.386;2023-11-22T11:16:30;102946.84;;;19.14;42.31
61710;BME280;73500;51.494;5.386;2023-11-22T11:18:56;102952.91;;;19.16;42.47
61710;BME280;73500;51.494;5.386;2023-11-22T11:21:23;102951.78;;;19.20;42.43
61710;BME280;73500;51.494;5.386;2023-11-22T11:23:51;102947.53;;;19.17;42.24
61710;BME280;73500;51.494;5.386;2023-11-22T11:26:19;102948.22;;;19.21;42.31
61710;BME280;73500;51.494;5.386;2023-11-22T11:28:48;102950.72;;;19.24;42.36
61710;BME280;73500;51.494;5.386;2023-11-22T11:31:14;102956.75;;;19.26;42.50
61710;BME280;73500;51.494;5.386;2023-11-22T11:34:06;102950.63;;;19.26;42.65
61710;BME280;73500;51.494;5.386;2023-11-22T11:36:32;102933.84;;;19.27;42.44
61710;BME280;73500;51.494;5.386;2023-11-22T11:38:59;102927.69;;;19.26;42.71
61710;BME280;73500;51.494;5.386;2023-11-22T11:41:30;102919.84;;;19.25;42.83
61710;BME280;73500;51.494;5.386;2023-11-22T11:43:57;102913.69;;;19.24;42.97
61710;BME280;73500;51.494;5.386;2023-11-22T11:46:23;102909.34;;;19.23;42.90
61710;BME280;73500;51.494;5.386;2023-11-22T11:48:52;102900.97;;;19.15;43.20
61710;BME280;73500;51.494;5.386;2023-11-22T11:51:19;102899.44;;;19.11;43.44
61710;BME280;73500;51.494;5.386;2023-11-22T11:53:45;102889.88;;;19.08;43.38
61710;BME280;73500;51.494;5.386;2023-11-22T11:56:12;102876.66;;;19.08;43.60
61710;BME280;73500;51.494;5.386;2023-11-22T11:58:38;102867.97;;;19.06;43.60
61710;BME280;73500;51.494;5.386;2023-11-22T12:01:06;102865.31;;;19.06;43.26
61710;BME280;73500;51.494;5.386;2023-11-22T12:03:35;102855.69;;;19.05;43.49
61710;BME280;73500;51.494;5.386;2023-11-22T12:06:01;102858.16;;;19.08;43.25
61710;BME280;73500;51.494;5.386;2023-11-22T12:08:26;102869.34;;;19.13;43.22
61710;BME280;73500;51.494;5.386;2023-11-22T12:10:56;102867.56;;;19.14;43.17
61710;BME280;73500;51.494;5.386;2023-11-22T12:13:24;102859.56;;;19.15;43.15
61710;BME280;73500;51.494;5.386;2023-11-22T12:15:51;102849.81;;;19.16;42.93
61710;BME280;73500;51.494;5.386;2023-11-22T12:18:19;102855.13;;;19.16;42.84
61710;BME280;73500;51.494;5.386;2023-11-22T12:20:56;102844.69;;;19.13;42.73
61710;BME280;73500;51.494;5.386;2023-11-22T12:23:23;102847.34;;;19.13;42.90
61710;BME280;73500;51.494;5.386;2023-11-22T12:25:56;102846.50;;;19.12;42.75
61710;BME280;73500;51.494;5.386;2023-11-22T12:28:23;102846.50;;;19.12;42.72
61710;BME280;73500;51.494;5.386;2023-11-22T12:30:48;102847.44;;;19.11;42.77
61710;BME280;73500;51.494;5.386;2023-11-22T12:33:14;102855.44;;;19.10;42.66
61710;BME280;73500;51.494;5.386;2023-11-22T12:35:43;102864.22;;;19.10;42.74
61710;BME280;73500;51.494;5.386;2023-11-22T12:38:10;102866.09;;;19.08;42.82
61710;BME280;73500;51.494;5.386;2023-11-22T12:40:35;102862.69;;;19.06;42.78
61710;BME280;73500;51.494;5.386;2023-11-22T12:43:01;102870.63;;;19.06;42.69
61710;BME280;73500;51.494;5.386;2023-11-22T12:45:29;102861.81;;;19.06;42.78